sensor_id;sensor_type;location;lat;lon;timestamp;temperature;humidity
65188;SHT30;51775;51.148;6.950;2023-05-10T00:01:22;19.12;65.92
65188;SHT30;51775;51.148;6.950;2023-05-10T00:03:47;19.19;65.66
65188;SHT30;51775;51.148;6.950;2023-05-10T00:06:13;19.19;65.71
65188;SHT30;51775;51.148;6.950;2023-05-10T00:08:38;19.09;66.04
65188;SHT30;51775;51.148;6.950;2023-05-10T00:11:03;19.19;66.09
65188;SHT30;51775;51.148;6.950;2023-05-10T00:13:31;19.25;65.90
65188;SHT30;51775;51.148;6.950;2023-05-10T00:15:57;19.30;65.42
65188;SHT30;51775;51.148;6.950;2023-05-10T00:18:22;19.40;65.17
65188;SHT30;51775;51.148;6.950;2023-05-10T00:20:47;19.47;64.89
65188;SHT30;51775;51.148;6.950;2023-05-10T00:23:13;19.54;64.87
65188;SHT30;51775;51.148;6.950;2023-05-10T00:25:38;19.54;64.62
65188;SHT30;51775;51.148;6.950;2023-05-10T00:28:04;19.60;64.43
65188;SHT30;51775;51.148;6.950;2023-05-10T00:30:29;19.63;64.53
65188;SHT30;51775;51.148;6.950;2023-05-10T00:32:54;19.73;64.09
65188;SHT30;51775;51.148;6.950;2023-05-10T00:35:19;19.81;64.00
65188;SHT30;51775;51.148;6.950;2023-05-10T00:37:45;19.87;63.83
65188;SHT30;51775;51.148;6.950;2023-05-10T00:40:10;19.91;63.76
65188;SHT30;51775;51.148;6.950;2023-05-10T00:42:36;19.97;63.68
65188;SHT30;51775;51.148;6.950;2023-05-10T00:45:01;20.00;63.44
65188;SHT30;51775;51.148;6.950;2023-05-10T00:47:27;20.01;63.44
65188;SHT30;51775;51.148;6.950;2023-05-10T00:49:52;20.05;63.31
65188;SHT30;51775;51.148;6.950;2023-05-10T00:52:18;20.02;63.25
65188;SHT30;51775;51.148;6.950;2023-05-10T00:54:43;20.05;63.15
65188;SHT30;51775;51.148;6.950;2023-05-10T00:57:09;20.04;63.25
65188;SHT30;51775;51.148;6.950;2023-05-10T00:59:34;20.07;63.30
65188;SHT30;51775;51.148;6.950;2023-05-10T01:02:00;20.02;63.22
65188;SHT30;51775;51.148;6.950;2023-05-10T01:04:25;20.04;63.34
65188;SHT30;51775;51.148;6.950;2023-05-10T01:06:51;20.02;63.26
65188;SHT30;51775;51.148;6.950;2023-05-10T01:09:17;20.02;63.13
65188;SHT30;51775;51.148;6.950;2023-05-10T01:11:42;20.00;63.24
65188;SHT30;51775;51.148;6.950;2023-05-10T01:14:08;19.98;63.24
65188;SHT30;51775;51.148;6.950;2023-05-10T01:16:37;20.00;63.31
65188;SHT30;51775;51.148;6.950;2023-05-10T01:19:12;20.00;63.38
65188;SHT30;51775;51.148;6.950;2023-05-10T01:24:46;19.92;63.52
65188;SHT30;51775;51.148;6.950;2023-05-10T01:27:30;19.88;63.62
65188;SHT30;51775;51.148;6.950;2023-05-10T01:33:14;19.87;63.69
65188;SHT30;51775;51.148;6.950;2023-05-10T01:35:48;19.87;63.61
65188;SHT30;51775;51.148;6.950;2023-05-10T01:44:29;19.78;63.24
65188;SHT30;51775;51.148;6.950;2023-05-10T01:46:51;19.78;63.18
65188;SHT30;51775;51.148;6.950;2023-05-10T01:49:26;19.75;63.21
65188;SHT30;51775;51.148;6.950;2023-05-10T01:52:00;19.77;63.12
65188;SHT30;51775;51.148;6.950;2023-05-10T01:54:27;19.70;63.10
65188;SHT30;51775;51.148;6.950;2023-05-10T01:57:03;19.71;62.67
65188;SHT30;51775;51.148;6.950;2023-05-10T01:59:33;19.67;62.47
65188;SHT30;51775;51.148;6.950;2023-05-10T02:02:00;19.67;62.37
65188;SHT30;51775;51.148;6.950;2023-05-10T02:04:27;19.67;62.17
65188;SHT30;51775;51.148;6.950;2023-05-10T02:06:53;19.67;62.20
65188;SHT30;51775;51.148;6.950;2023-05-10T02:09:20;19.67;62.21
65188;SHT30;51775;51.148;6.950;2023-05-10T02:11:48;19.66;62.12
65188;SHT30;51775;51.148;6.950;2023-05-10T02:14:15;19.62;62.12
65188;SHT30;51775;51.148;6.950;2023-05-10T02:16:41;19.62;62.19
65188;SHT30;51775;51.148;6.950;2023-05-10T02:19:07;19.60;62.11
65188;SHT30;51775;51.148;6.950;2023-05-10T02:21:34;19.59;62.15
65188;SHT30;51775;51.148;6.950;2023-05-10T02:24:01;19.57;62.30
65188;SHT30;51775;51.148;6.950;2023-05-10T02:26:29;19.56;62.25
65188;SHT30;51775;51.148;6.950;2023-05-10T02:28:55;19.57;62.35
65188;SHT30;51775;51.148;6.950;2023-05-10T02:31:22;19.52;62.64
65188;SHT30;51775;51.148;6.950;2023-05-10T02:33:48;19.52;62.67
65188;SHT30;51775;51.148;6.950;2023-05-10T02:36:15;19.53;62.66
65188;SHT30;51775;51.148;6.950;2023-05-10T02:38:40;19.52;62.83
65188;SHT30;51775;51.148;6.950;2023-05-10T02:41:08;19.53;63.00
65188;SHT30;51775;51.148;6.950;2023-05-10T02:43:34;19.52;62.93
65188;SHT30;51775;51.148;6.950;2023-05-10T02:46:00;19.52;63.24
65188;SHT30;51775;51.148;6.950;2023-05-10T02:48:25;19.49;63.25
65188;SHT30;51775;51.148;6.950;2023-05-10T02:50:51;19.50;63.24
65188;SHT30;51775;51.148;6.950;2023-05-10T02:53:22;19.50;63.36
65188;SHT30;51775;51.148;6.950;2023-05-10T02:55:51;19.50;63.19
65188;SHT30;51775;51.148;6.950;2023-05-10T02:58:17;19.50;63.35
65188;SHT30;51775;51.148;6.950;2023-05-10T03:00:43;19.47;63.50
65188;SHT30;51775;51.148;6.950;2023-05-10T03:03:08;19.47;63.47
65188;SHT30;51775;51.148;6.950;2023-05-10T03:05:33;19.50;63.43
65188;SHT30;51775;51.148;6.950;2023-05-10T03:07:59;19.49;63.56
65188;SHT30;51775;51.148;6.950;2023-05-10T03:10:27;19.49;63.43
65188;SHT30;51775;51.148;6.950;2023-05-10T03:13:07;19.49;63.35
65188;SHT30;51775;51.148;6.950;2023-05-10T03:18:40;19.46;63.54
65188;SHT30;51775;51.148;6.950;2023-05-10T03:21:11;19.49;63.57
65188;SHT30;51775;51.148;6.950;2023-05-10T03:23:46;19.47;63.47
65188;SHT30;51775;51.148;6.950;2023-05-10T03:26:31;19.49;63.42
65188;SHT30;51775;51.148;6.950;2023-05-10T03:28:57;19.49;63.38
65188;SHT30;51775;51.148;6.950;2023-05-10T03:31:23;19.49;63.53
65188;SHT30;51775;51.148;6.950;2023-05-10T03:33:50;19.46;63.40
65188;SHT30;51775;51.148;6.950;2023-05-10T03:36:15;19.49;63.61
65188;SHT30;51775;51.148;6.950;2023-05-10T03:38:41;19.46;63.64
65188;SHT30;51775;51.148;6.950;2023-05-10T03:41:06;19.45;63.68
65188;SHT30;51775;51.148;6.950;2023-05-10T03:43:31;19.46;63.67
65188;SHT30;51775;51.148;6.950;2023-05-10T03:45:56;19.45;63.79
65188;SHT30;51775;51.148;6.950;2023-05-10T03:48:22;19.45;63.80
65188;SHT30;51775;51.148;6.950;2023-05-10T03:50:47;19.45;63.81
65188;SHT30;51775;51.148;6.950;2023-05-10T03:53:12;19.43;63.82
65188;SHT30;51775;51.148;6.950;2023-05-10T03:55:39;19.43;63.74
65188;SHT30;51775;51.148;6.950;2023-05-10T03:58:04;19.45;63.82
65188;SHT30;51775;51.148;6.950;2023-05-10T04:00:29;19.45;63.72
65188;SHT30;51775;51.148;6.950;2023-05-10T04:02:54;19.42;63.90
65188;SHT30;51775;51.148;6.950;2023-05-10T04:05:20;19.42;63.94
65188;SHT30;51775;51.148;6.950;2023-05-10T04:07:45;19.39;64.08
65188;SHT30;51775;51.148;6.950;2023-05-10T04:10:11;19.42;63.98
65188;SHT30;51775;51.148;6.950;2023-05-10T04:12:36;19.42;64.23
65188;SHT30;51775;51.148;6.950;2023-05-10T04:15:01;19.39;64.09
65188;SHT30;51775;51.148;6.950;2023-05-10T04:17:26;19.37;64.45
65188;SHT30;51775;51.148;6.950;2023-05-10T04:19:52;19.36;64.33
65188;SHT30;51775;51.148;6.950;2023-05-10T04:22:17;19.36;64.33
65188;SHT30;51775;51.148;6.950;2023-05-10T04:24:42;19.36;64.53
65188;SHT30;51775;51.148;6.950;2023-05-10T04:27:08;19.37;64.36
65188;SHT30;51775;51.148;6.950;2023-05-10T04:29:33;19.37;64.34
65188;SHT30;51775;51.148;6.950;2023-05-10T04:31:59;19.36;64.45
65188;SHT30;51775;51.148;6.950;2023-05-10T04:34:25;19.32;64.46
65188;SHT30;51775;51.148;6.950;2023-05-10T04:36:50;19.32;64.50
65188;SHT30;51775;51.148;6.950;2023-05-10T04:39:15;19.26;64.80
65188;SHT30;51775;51.148;6.950;2023-05-10T04:41:41;19.26;64.90
65188;SHT30;51775;51.148;6.950;2023-05-10T04:44:06;19.26;65.12
65188;SHT30;51775;51.148;6.950;2023-05-10T04:46:31;19.29;64.98
65188;SHT30;51775;51.148;6.950;2023-05-10T04:48:56;19.35;64.99
65188;SHT30;51775;51.148;6.950;2023-05-10T04:51:22;19.35;65.10
65188;SHT30;51775;51.148;6.950;2023-05-10T04:53:47;19.35;64.98
65188;SHT30;51775;51.148;6.950;2023-05-10T04:56:12;19.40;65.03
65188;SHT30;51775;51.148;6.950;2023-05-10T04:58:38;19.37;64.97
65188;SHT30;51775;51.148;6.950;2023-05-10T05:01:06;19.35;65.23
65188;SHT30;51775;51.148;6.950;2023-05-10T05:03:32;19.36;65.16
65188;SHT30;51775;51.148;6.950;2023-05-10T05:05:57;19.37;65.30
65188;SHT30;51775;51.148;6.950;2023-05-10T05:08:22;19.36;65.19
65188;SHT30;51775;51.148;6.950;2023-05-10T05:10:48;19.40;65.47
65188;SHT30;51775;51.148;6.950;2023-05-10T05:13:14;19.39;65.50
65188;SHT30;51775;51.148;6.950;2023-05-10T05:15:39;19.45;65.33
65188;SHT30;51775;51.148;6.950;2023-05-10T05:18:05;19.49;65.05
65188;SHT30;51775;51.148;6.950;2023-05-10T05:20:32;19.49;64.92
65188;SHT30;51775;51.148;6.950;2023-05-10T05:22:57;19.52;65.52
65188;SHT30;51775;51.148;6.950;2023-05-10T05:25:23;19.52;64.87
65188;SHT30;51775;51.148;6.950;2023-05-10T05:27:48;19.54;64.78
65188;SHT30;51775;51.148;6.950;2023-05-10T05:30:13;19.57;64.90
65188;SHT30;51775;51.148;6.950;2023-05-10T05:32:38;19.60;64.94
65188;SHT30;51775;51.148;6.950;2023-05-10T05:35:04;19.59;64.19
65188;SHT30;51775;51.148;6.950;2023-05-10T05:37:29;19.60;64.10
65188;SHT30;51775;51.148;6.950;2023-05-10T05:39:55;19.63;64.17
65188;SHT30;51775;51.148;6.950;2023-05-10T05:42:20;19.63;63.71
65188;SHT30;51775;51.148;6.950;2023-05-10T05:44:45;19.66;64.13
65188;SHT30;51775;51.148;6.950;2023-05-10T05:47:11;19.66;63.86
65188;SHT30;51775;51.148;6.950;2023-05-10T05:49:36;19.67;63.77
65188;SHT30;51775;51.148;6.950;2023-05-10T05:52:02;19.71;64.17
65188;SHT30;51775;51.148;6.950;2023-05-10T05:54:28;19.71;63.20
65188;SHT30;51775;51.148;6.950;2023-05-10T05:56:55;19.74;63.06
65188;SHT30;51775;51.148;6.950;2023-05-10T05:59:20;19.77;63.02
65188;SHT30;51775;51.148;6.950;2023-05-10T06:01:45;19.74;62.77
65188;SHT30;51775;51.148;6.950;2023-05-10T06:04:10;19.77;62.95
65188;SHT30;51775;51.148;6.950;2023-05-10T06:06:36;19.74;63.04
65188;SHT30;51775;51.148;6.950;2023-05-10T06:09:01;19.74;62.77
65188;SHT30;51775;51.148;6.950;2023-05-10T06:11:26;19.71;62.68
65188;SHT30;51775;51.148;6.950;2023-05-10T06:13:51;19.70;62.62
65188;SHT30;51775;51.148;6.950;2023-05-10T06:16:17;19.69;62.97
65188;SHT30;51775;51.148;6.950;2023-05-10T06:18:42;19.70;62.66
65188;SHT30;51775;51.148;6.950;2023-05-10T06:21:07;19.64;63.07
65188;SHT30;51775;51.148;6.950;2023-05-10T06:23:33;19.62;62.90
65188;SHT30;51775;51.148;6.950;2023-05-10T06:25:58;19.60;62.98
65188;SHT30;51775;51.148;6.950;2023-05-10T06:28:23;19.59;63.32
65188;SHT30;51775;51.148;6.950;2023-05-10T06:30:48;19.59;62.72
65188;SHT30;51775;51.148;6.950;2023-05-10T06:33:14;19.64;62.70
65188;SHT30;51775;51.148;6.950;2023-05-10T06:35:39;19.63;62.52
65188;SHT30;51775;51.148;6.950;2023-05-10T06:38:05;19.69;62.72
65188;SHT30;51775;51.148;6.950;2023-05-10T06:40:31;19.73;62.67
65188;SHT30;51775;51.148;6.950;2023-05-10T06:42:57;19.77;62.80
65188;SHT30;51775;51.148;6.950;2023-05-10T06:45:22;19.77;62.46
65188;SHT30;51775;51.148;6.950;2023-05-10T06:47:47;19.82;61.96
65188;SHT30;51775;51.148;6.950;2023-05-10T06:50:13;19.88;62.31
65188;SHT30;51775;51.148;6.950;2023-05-10T06:52:38;19.91;62.19
65188;SHT30;51775;51.148;6.950;2023-05-10T06:55:04;19.94;62.04
65188;SHT30;51775;51.148;6.950;2023-05-10T06:57:30;20.00;61.89
65188;SHT30;51775;51.148;6.950;2023-05-10T06:59:55;19.98;61.97
65188;SHT30;51775;51.148;6.950;2023-05-10T07:02:21;20.01;61.78
65188;SHT30;51775;51.148;6.950;2023-05-10T07:04:47;19.97;61.91
65188;SHT30;51775;51.148;6.950;2023-05-10T07:07:13;19.97;61.95
65188;SHT30;51775;51.148;6.950;2023-05-10T07:09:39;19.98;62.43
65188;SHT30;51775;51.148;6.950;2023-05-10T07:12:04;19.95;62.31
65188;SHT30;51775;51.148;6.950;2023-05-10T07:14:29;19.94;62.24
65188;SHT30;51775;51.148;6.950;2023-05-10T07:16:55;19.95;62.24
65188;SHT30;51775;51.148;6.950;2023-05-10T07:19:20;19.98;62.80
65188;SHT30;51775;51.148;6.950;2023-05-10T07:21:45;20.01;63.11
65188;SHT30;51775;51.148;6.950;2023-05-10T07:24:10;20.01;63.29
65188;SHT30;51775;51.148;6.950;2023-05-10T07:26:36;19.98;63.32
65188;SHT30;51775;51.148;6.950;2023-05-10T07:29:01;20.00;63.19
65188;SHT30;51775;51.148;6.950;2023-05-10T07:31:26;20.05;63.81
65188;SHT30;51775;51.148;6.950;2023-05-10T07:33:52;20.02;63.44
65188;SHT30;51775;51.148;6.950;2023-05-10T07:36:17;20.05;63.85
65188;SHT30;51775;51.148;6.950;2023-05-10T07:38:42;20.04;64.07
65188;SHT30;51775;51.148;6.950;2023-05-10T07:41:07;20.04;64.19
65188;SHT30;51775;51.148;6.950;2023-05-10T07:43:33;20.07;64.31
65188;SHT30;51775;51.148;6.950;2023-05-10T07:45:58;20.02;64.63
65188;SHT30;51775;51.148;6.950;2023-05-10T07:48:23;20.02;64.04
65188;SHT30;51775;51.148;6.950;2023-05-10T07:50:49;20.02;64.13
65188;SHT30;51775;51.148;6.950;2023-05-10T07:53:14;20.02;63.86
65188;SHT30;51775;51.148;6.950;2023-05-10T07:55:39;20.04;64.02
65188;SHT30;51775;51.148;6.950;2023-05-10T07:58:05;20.01;63.93
65188;SHT30;51775;51.148;6.950;2023-05-10T08:00:30;20.01;63.55
65188;SHT30;51775;51.148;6.950;2023-05-10T08:02:56;20.02;64.61
65188;SHT30;51775;51.148;6.950;2023-05-10T08:05:21;20.00;64.04
65188;SHT30;51775;51.148;6.950;2023-05-10T08:07:46;20.00;65.04
65188;SHT30;51775;51.148;6.950;2023-05-10T08:10:11;20.01;63.98
65188;SHT30;51775;51.148;6.950;2023-05-10T08:12:37;19.97;63.76
65188;SHT30;51775;51.148;6.950;2023-05-10T08:15:03;19.98;63.98
65188;SHT30;51775;51.148;6.950;2023-05-10T08:17:28;19.97;63.69
65188;SHT30;51775;51.148;6.950;2023-05-10T08:19:53;20.00;64.50
65188;SHT30;51775;51.148;6.950;2023-05-10T08:22:19;19.98;63.36
65188;SHT30;51775;51.148;6.950;2023-05-10T08:24:44;20.00;63.49
65188;SHT30;51775;51.148;6.950;2023-05-10T08:27:09;19.95;63.71
65188;SHT30;51775;51.148;6.950;2023-05-10T08:29:34;19.97;63.43
65188;SHT30;51775;51.148;6.950;2023-05-10T08:32:00;19.95;63.56
65188;SHT30;51775;51.148;6.950;2023-05-10T08:34:25;19.97;63.15
65188;SHT30;51775;51.148;6.950;2023-05-10T08:36:50;19.97;63.22
65188;SHT30;51775;51.148;6.950;2023-05-10T08:39:16;19.98;63.37
65188;SHT30;51775;51.148;6.950;2023-05-10T08:41:44;19.98;63.96
65188;SHT30;51775;51.148;6.950;2023-05-10T08:44:09;19.97;64.44
65188;SHT30;51775;51.148;6.950;2023-05-10T08:46:35;19.98;64.60
65188;SHT30;51775;51.148;6.950;2023-05-10T08:49:02;19.98;64.70
65188;SHT30;51775;51.148;6.950;2023-05-10T08:51:29;19.97;64.03
65188;SHT30;51775;51.148;6.950;2023-05-10T08:53:56;19.98;64.21
65188;SHT30;51775;51.148;6.950;2023-05-10T08:56:30;19.97;64.62
65188;SHT30;51775;51.148;6.950;2023-05-10T08:58:57;20.00;65.19
65188;SHT30;51775;51.148;6.950;2023-05-10T09:01:23;19.97;65.01
65188;SHT30;51775;51.148;6.950;2023-05-10T09:03:49;19.95;65.30
65188;SHT30;51775;51.148;6.950;2023-05-10T09:06:15;19.94;64.23
65188;SHT30;51775;51.148;6.950;2023-05-10T09:08:41;19.94;64.14
65188;SHT30;51775;51.148;6.950;2023-05-10T09:11:08;19.95;64.88
65188;SHT30;51775;51.148;6.950;2023-05-10T09:13:35;19.95;63.99
65188;SHT30;51775;51.148;6.950;2023-05-10T09:16:01;19.97;64.37
65188;SHT30;51775;51.148;6.950;2023-05-10T09:18:27;19.97;63.74
65188;SHT30;51775;51.148;6.950;2023-05-10T09:20:52;19.98;64.19
65188;SHT30;51775;51.148;6.950;2023-05-10T09:23:17;19.97;64.28
65188;SHT30;51775;51.148;6.950;2023-05-10T09:25:43;19.97;64.22
65188;SHT30;51775;51.148;6.950;2023-05-10T09:28:08;19.97;63.50
65188;SHT30;51775;51.148;6.950;2023-05-10T09:30:34;20.00;63.34
65188;SHT30;51775;51.148;6.950;2023-05-10T09:33:00;20.00;62.03
65188;SHT30;51775;51.148;6.950;2023-05-10T09:35:28;19.87;61.86
65188;SHT30;51775;51.148;6.950;2023-05-10T09:37:56;19.81;61.35
65188;SHT30;51775;51.148;6.950;2023-05-10T09:40:24;19.75;62.66
65188;SHT30;51775;51.148;6.950;2023-05-10T09:43:14;19.74;62.70
65188;SHT30;51775;51.148;6.950;2023-05-10T09:45:40;19.77;62.31
65188;SHT30;51775;51.148;6.950;2023-05-10T09:48:06;19.77;62.43
65188;SHT30;51775;51.148;6.950;2023-05-10T09:50:31;19.80;61.98
65188;SHT30;51775;51.148;6.950;2023-05-10T09:52:58;19.81;62.44
65188;SHT30;51775;51.148;6.950;2023-05-10T09:57:59;19.91;62.09
65188;SHT30;51775;51.148;6.950;2023-05-10T10:00:24;19.91;61.84
65188;SHT30;51775;51.148;6.950;2023-05-10T10:02:59;19.95;62.24
65188;SHT30;51775;51.148;6.950;2023-05-10T10:05:35;19.95;61.86
65188;SHT30;51775;51.148;6.950;2023-05-10T10:08:02;19.98;61.79
65188;SHT30;51775;51.148;6.950;2023-05-10T10:10:28;19.98;61.76
65188;SHT30;51775;51.148;6.950;2023-05-10T10:12:54;19.98;61.75
65188;SHT30;51775;51.148;6.950;2023-05-10T10:15:21;20.01;60.62
65188;SHT30;51775;51.148;6.950;2023-05-10T10:17:48;20.01;60.29
65188;SHT30;51775;51.148;6.950;2023-05-10T10:20:14;20.01;60.55
65188;SHT30;51775;51.148;6.950;2023-05-10T10:22:39;19.98;60.61
65188;SHT30;51775;51.148;6.950;2023-05-10T10:25:05;20.00;60.72
65188;SHT30;51775;51.148;6.950;2023-05-10T10:35:29;20.01;60.73
65188;SHT30;51775;51.148;6.950;2023-05-10T10:37:54;20.01;60.52
65188;SHT30;51775;51.148;6.950;2023-05-10T10:42:51;20.05;60.47
65188;SHT30;51775;51.148;6.950;2023-05-10T10:45:17;20.07;60.24
65188;SHT30;51775;51.148;6.950;2023-05-10T10:47:44;20.09;59.93
65188;SHT30;51775;51.148;6.950;2023-05-10T10:50:09;20.11;60.30
65188;SHT30;51775;51.148;6.950;2023-05-10T10:52:35;20.12;61.22
65188;SHT30;51775;51.148;6.950;2023-05-10T11:05:37;20.19;60.37
65188;SHT30;51775;51.148;6.950;2023-05-10T11:08:26;20.24;59.95
65188;SHT30;51775;51.148;6.950;2023-05-10T11:11:02;20.26;59.30
65188;SHT30;51775;51.148;6.950;2023-05-10T11:13:29;20.28;59.09
65188;SHT30;51775;51.148;6.950;2023-05-10T11:15:55;20.32;59.42
65188;SHT30;51775;51.148;6.950;2023-05-10T11:18:24;20.32;60.05
65188;SHT30;51775;51.148;6.950;2023-05-10T11:21:00;20.35;60.18
65188;SHT30;51775;51.148;6.950;2023-05-10T11:23:31;20.38;59.35
65188;SHT30;51775;51.148;6.950;2023-05-10T11:25:56;20.38;59.86
65188;SHT30;51775;51.148;6.950;2023-05-10T11:28:21;20.43;59.22
65188;SHT30;51775;51.148;6.950;2023-05-10T11:30:47;20.46;59.14
65188;SHT30;51775;51.148;6.950;2023-05-10T11:33:17;20.52;58.25
65188;SHT30;51775;51.148;6.950;2023-05-10T11:35:42;20.60;57.65
65188;SHT30;51775;51.148;6.950;2023-05-10T11:38:09;20.60;59.27
65188;SHT30;51775;51.148;6.950;2023-05-10T11:40:36;20.63;58.05
65188;SHT30;51775;51.148;6.950;2023-05-10T11:43:02;20.67;58.42
65188;SHT30;51775;51.148;6.950;2023-05-10T11:45:28;20.70;56.71
65188;SHT30;51775;51.148;6.950;2023-05-10T11:47:55;20.70;57.51
65188;SHT30;51775;51.148;6.950;2023-05-10T11:50:20;20.76;56.44
65188;SHT30;51775;51.148;6.950;2023-05-10T11:52:50;20.73;56.93
65188;SHT30;51775;51.148;6.950;2023-05-10T11:55:15;20.80;57.46
65188;SHT30;51775;51.148;6.950;2023-05-10T11:57:41;20.84;55.85
65188;SHT30;51775;51.148;6.950;2023-05-10T12:00:06;20.86;56.67
65188;SHT30;51775;51.148;6.950;2023-05-10T12:02:32;20.87;56.37
65188;SHT30;51775;51.148;6.950;2023-05-10T12:04:57;20.87;56.45
65188;SHT30;51775;51.148;6.950;2023-05-10T12:07:23;20.83;55.88
65188;SHT30;51775;51.148;6.950;2023-05-10T12:12:42;20.79;56.85
65188;SHT30;51775;51.148;6.950;2023-05-10T12:15:21;20.74;57.53
65188;SHT30;51775;51.148;6.950;2023-05-10T12:17:48;20.70;56.37
65188;SHT30;51775;51.148;6.950;2023-05-10T12:20:18;20.67;57.32
65188;SHT30;51775;51.148;6.950;2023-05-10T12:22:45;20.63;57.64
65188;SHT30;51775;51.148;6.950;2023-05-10T12:25:11;20.62;59.54
65188;SHT30;51775;51.148;6.950;2023-05-10T12:27:36;20.59;59.23
65188;SHT30;51775;51.148;6.950;2023-05-10T12:30:02;20.57;58.48
65188;SHT30;51775;51.148;6.950;2023-05-10T12:32:40;20.56;58.72
65188;SHT30;51775;51.148;6.950;2023-05-10T12:35:06;20.57;60.44
65188;SHT30;51775;51.148;6.950;2023-05-10T12:37:32;20.55;59.69
65188;SHT30;51775;51.148;6.950;2023-05-10T12:39:57;20.55;58.92
65188;SHT30;51775;51.148;6.950;2023-05-10T12:42:22;20.59;59.48
65188;SHT30;51775;51.148;6.950;2023-05-10T12:44:48;20.55;58.64
65188;SHT30;51775;51.148;6.950;2023-05-10T12:47:13;20.56;59.46
65188;SHT30;51775;51.148;6.950;2023-05-10T12:49:38;20.56;59.19
65188;SHT30;51775;51.148;6.950;2023-05-10T12:52:03;20.52;59.21
65188;SHT30;51775;51.148;6.950;2023-05-10T12:54:29;20.49;58.96
65188;SHT30;51775;51.148;6.950;2023-05-10T12:56:54;20.52;59.67
65188;SHT30;51775;51.148;6.950;2023-05-10T12:59:19;20.50;59.49
65188;SHT30;51775;51.148;6.950;2023-05-10T13:01:45;20.49;59.14
65188;SHT30;51775;51.148;6.950;2023-05-10T13:04:10;20.50;58.83
65188;SHT30;51775;51.148;6.950;2023-05-10T13:06:35;20.46;58.12
65188;SHT30;51775;51.148;6.950;2023-05-10T13:09:02;20.48;58.22
65188;SHT30;51775;51.148;6.950;2023-05-10T13:11:27;20.45;58.09
65188;SHT30;51775;51.148;6.950;2023-05-10T13:13:52;20.45;57.88
65188;SHT30;51775;51.148;6.950;2023-05-10T13:16:18;20.45;56.81
65188;SHT30;51775;51.148;6.950;2023-05-10T13:18:43;20.42;57.60
65188;SHT30;51775;51.148;6.950;2023-05-10T13:21:08;20.43;57.78
65188;SHT30;51775;51.148;6.950;2023-05-10T13:23:34;20.40;57.97
65188;SHT30;51775;51.148;6.950;2023-05-10T13:25:59;20.42;57.40
65188;SHT30;51775;51.148;6.950;2023-05-10T13:28:24;20.43;57.89
65188;SHT30;51775;51.148;6.950;2023-05-10T13:30:50;20.40;57.68
65188;SHT30;51775;51.148;6.950;2023-05-10T13:33:15;20.39;57.66
65188;SHT30;51775;51.148;6.950;2023-05-10T13:35:40;20.39;58.20
65188;SHT30;51775;51.148;6.950;2023-05-10T13:38:06;20.39;57.92
65188;SHT30;51775;51.148;6.950;2023-05-10T13:40:31;20.42;58.88
65188;SHT30;51775;51.148;6.950;2023-05-10T13:42:56;20.42;58.22
65188;SHT30;51775;51.148;6.950;2023-05-10T13:45:21;20.46;58.12
65188;SHT30;51775;51.148;6.950;2023-05-10T13:47:47;20.43;58.83
65188;SHT30;51775;51.148;6.950;2023-05-10T13:50:12;20.45;58.04
65188;SHT30;51775;51.148;6.950;2023-05-10T13:52:37;20.48;57.87
65188;SHT30;51775;51.148;6.950;2023-05-10T13:55:03;20.49;57.56
65188;SHT30;51775;51.148;6.950;2023-05-10T13:57:28;20.48;57.21
65188;SHT30;51775;51.148;6.950;2023-05-10T13:59:53;20.52;56.62
65188;SHT30;51775;51.148;6.950;2023-05-10T14:02:19;20.55;56.58
65188;SHT30;51775;51.148;6.950;2023-05-10T14:04:44;20.57;57.80
65188;SHT30;51775;51.148;6.950;2023-05-10T14:07:09;20.55;57.80
65188;SHT30;51775;51.148;6.950;2023-05-10T14:09:35;20.66;58.60
65188;SHT30;51775;51.148;6.950;2023-05-10T14:12:00;20.70;59.05
65188;SHT30;51775;51.148;6.950;2023-05-10T14:14:25;20.72;56.87
65188;SHT30;51775;51.148;6.950;2023-05-10T14:16:50;20.74;57.30
65188;SHT30;51775;51.148;6.950;2023-05-10T14:19:16;20.79;56.93
65188;SHT30;51775;51.148;6.950;2023-05-10T14:21:41;20.79;56.45
65188;SHT30;51775;51.148;6.950;2023-05-10T14:24:06;20.83;56.89
65188;SHT30;51775;51.148;6.950;2023-05-10T14:26:32;20.84;57.74
65188;SHT30;51775;51.148;6.950;2023-05-10T14:28:57;20.87;59.64
65188;SHT30;51775;51.148;6.950;2023-05-10T14:31:22;20.87;57.93
65188;SHT30;51775;51.148;6.950;2023-05-10T14:33:48;20.88;57.47
65188;SHT30;51775;51.148;6.950;2023-05-10T14:36:13;20.88;58.53
65188;SHT30;51775;51.148;6.950;2023-05-10T14:38:39;20.90;58.40
65188;SHT30;51775;51.148;6.950;2023-05-10T14:41:04;20.86;58.47
65188;SHT30;51775;51.148;6.950;2023-05-10T14:43:30;20.81;57.05
65188;SHT30;51775;51.148;6.950;2023-05-10T14:45:55;20.81;56.23
65188;SHT30;51775;51.148;6.950;2023-05-10T14:48:20;20.80;57.56
65188;SHT30;51775;51.148;6.950;2023-05-10T14:50:46;20.73;55.50
65188;SHT30;51775;51.148;6.950;2023-05-10T14:53:11;20.77;55.48
65188;SHT30;51775;51.148;6.950;2023-05-10T14:55:36;20.77;55.65
65188;SHT30;51775;51.148;6.950;2023-05-10T14:58:02;20.80;55.26
65188;SHT30;51775;51.148;6.950;2023-05-10T15:00:28;20.80;55.66
65188;SHT30;51775;51.148;6.950;2023-05-10T15:02:54;20.80;55.73
65188;SHT30;51775;51.148;6.950;2023-05-10T15:05:19;20.81;54.93
65188;SHT30;51775;51.148;6.950;2023-05-10T15:07:44;20.83;55.67
65188;SHT30;51775;51.148;6.950;2023-05-10T15:10:10;20.83;55.34
65188;SHT30;51775;51.148;6.950;2023-05-10T15:12:35;20.84;55.64
65188;SHT30;51775;51.148;6.950;2023-05-10T15:15:00;20.86;54.28
65188;SHT30;51775;51.148;6.950;2023-05-10T15:17:26;20.86;54.99
65188;SHT30;51775;51.148;6.950;2023-05-10T15:19:51;20.88;55.59
65188;SHT30;51775;51.148;6.950;2023-05-10T15:22:16;20.87;55.77
65188;SHT30;51775;51.148;6.950;2023-05-10T15:24:42;20.90;56.00
65188;SHT30;51775;51.148;6.950;2023-05-10T15:27:07;20.91;55.99
65188;SHT30;51775;51.148;6.950;2023-05-10T15:29:32;20.95;55.67
65188;SHT30;51775;51.148;6.950;2023-05-10T15:31:58;21.00;57.68
65188;SHT30;51775;51.148;6.950;2023-05-10T15:34:23;21.03;56.15
65188;SHT30;51775;51.148;6.950;2023-05-10T15:36:48;21.05;57.73
65188;SHT30;51775;51.148;6.950;2023-05-10T15:39:13;21.08;56.26
65188;SHT30;51775;51.148;6.950;2023-05-10T15:41:39;21.14;56.32
65188;SHT30;51775;51.148;6.950;2023-05-10T15:44:04;21.20;55.85
65188;SHT30;51775;51.148;6.950;2023-05-10T15:46:30;21.21;55.89
65188;SHT30;51775;51.148;6.950;2023-05-10T15:48:57;21.24;55.15
65188;SHT30;51775;51.148;6.950;2023-05-10T15:51:22;21.30;54.64
65188;SHT30;51775;51.148;6.950;2023-05-10T15:53:47;21.30;55.21
65188;SHT30;51775;51.148;6.950;2023-05-10T15:56:13;21.28;55.26
65188;SHT30;51775;51.148;6.950;2023-05-10T15:58:39;21.31;54.79
65188;SHT30;51775;51.148;6.950;2023-05-10T16:01:04;21.27;54.24
65188;SHT30;51775;51.148;6.950;2023-05-10T16:03:30;21.28;54.44
65188;SHT30;51775;51.148;6.950;2023-05-10T16:05:56;21.28;56.21